sensor_id;sensor_type;location;lat;lon;timestamp;pressure;altitude;pressure_sealevel;temperature;humidity
58739;BME280;44512;53.046;18.604;2022-12-18T00:00:43;103162.91;;;-1.29;67.20
58739;BME280;44512;53.046;18.604;2022-12-18T00:11:16;103174.70;;;-1.36;66.79
58739;BME280;44512;53.046;18.604;2022-12-18T00:21:40;103189.28;;;-1.46;66.65
58739;BME280;44512;53.046;18.604;2022-12-18T00:32:08;103202.56;;;-1.46;66.30
58739;BME280;44512;53.046;18.604;2022-12-18T00:42:36;103218.58;;;-1.48;65.98
58739;BME280;44512;53.046;18.604;2022-12-18T00:53:05;103225.69;;;-1.48;65.77
58739;BME280;44512;53.046;18.604;2022-12-18T01:03:33;103227.59;;;-1.52;65.69
58739;BME280;44512;53.046;18.604;2022-12-18T01:14:02;103235.62;;;-1.53;65.56
58739;BME280;44512;53.046;18.604;2022-12-18T01:24:31;103241.05;;;-1.57;65.51
58739;BME280;44512;53.046;18.604;2022-12-18T01:34:59;103246.53;;;-1.61;65.22
58739;BME280;44512;53.046;18.604;2022-12-18T01:45:29;103264.41;;;-1.65;65.17
58739;BME280;44512;53.046;18.604;2022-12-18T01:55:57;103282.16;;;-1.67;65.22
58739;BME280;44512;53.046;18.604;2022-12-18T02:06:33;103281.45;;;-1.70;65.28
58739;BME280;44512;53.046;18.604;2022-12-18T02:17:03;103288.88;;;-1.80;65.54
58739;BME280;44512;53.046;18.604;2022-12-18T02:27:22;103296.19;;;-1.87;65.80
58739;BME280;44512;53.046;18.604;2022-12-18T02:37:55;103304.23;;;-1.88;66.06
58739;BME280;44512;53.046;18.604;2022-12-18T02:48:22;103322.24;;;-1.96;66.36
58739;BME280;44512;53.046;18.604;2022-12-18T02:58:58;103327.32;;;-1.90;66.55
58739;BME280;44512;53.046;18.604;2022-12-18T03:09:20;103331.86;;;-1.94;66.75
58739;BME280;44512;53.046;18.604;2022-12-18T03:19:46;103340.82;;;-1.96;66.87
58739;BME280;44512;53.046;18.604;2022-12-18T03:30:14;103346.98;;;-1.96;67.17
58739;BME280;44512;53.046;18.604;2022-12-18T03:51:21;103376.83;;;-1.89;67.19
58739;BME280;44512;53.046;18.604;2022-12-18T04:01:42;103404.17;;;-1.87;67.19
58739;BME280;44512;53.046;18.604;2022-12-18T04:12:06;103403.47;;;-1.92;67.39
58739;BME280;44512;53.046;18.604;2022-12-18T04:22:35;103403.05;;;-1.80;67.41
58739;BME280;44512;53.046;18.604;2022-12-18T04:33:03;103402.60;;;-1.68;67.40
58739;BME280;44512;53.046;18.604;2022-12-18T04:43:32;103421.09;;;-1.65;66.99
58739;BME280;44512;53.046;18.604;2022-12-18T04:54:00;103429.86;;;-1.63;66.98
58739;BME280;44512;53.046;18.604;2022-12-18T05:04:29;103435.07;;;-1.60;66.88
58739;BME280;44512;53.046;18.604;2022-12-18T05:14:57;103442.91;;;-1.57;66.64
58739;BME280;44512;53.046;18.604;2022-12-18T05:25:26;103454.45;;;-1.58;66.60
58739;BME280;44512;53.046;18.604;2022-12-18T05:35:56;103473.12;;;-1.59;66.57
58739;BME280;44512;53.046;18.604;2022-12-18T05:46:22;103488.99;;;-1.58;66.49
58739;BME280;44512;53.046;18.604;2022-12-18T05:56:51;103496.03;;;-1.57;66.37
58739;BME280;44512;53.046;18.604;2022-12-18T06:07:19;103515.55;;;-1.58;66.13
58739;BME280;44512;53.046;18.604;2022-12-18T06:17:48;103533.66;;;-1.69;66.09
58739;BME280;44512;53.046;18.604;2022-12-18T06:28:17;103547.00;;;-1.70;65.78
58739;BME280;44512;53.046;18.604;2022-12-18T06:38:45;103549.68;;;-1.72;65.30
58739;BME280;44512;53.046;18.604;2022-12-18T06:49:13;103584.55;;;-1.82;63.90
58739;BME280;44512;53.046;18.604;2022-12-18T06:59:42;103603.61;;;-1.96;63.33
58739;BME280;44512;53.046;18.604;2022-12-18T07:10:10;103612.78;;;-2.06;62.91
58739;BME280;44512;53.046;18.604;2022-12-18T07:20:39;103629.06;;;-2.19;62.07
58739;BME280;44512;53.046;18.604;2022-12-18T07:31:10;103640.06;;;-2.31;62.38
58739;BME280;44512;53.046;18.604;2022-12-18T07:41:36;103657.97;;;-2.39;63.84
58739;BME280;44512;53.046;18.604;2022-12-18T07:52:04;103650.07;;;-2.41;65.14
58739;BME280;44512;53.046;18.604;2022-12-18T08:02:33;103662.46;;;-2.41;65.92
58739;BME280;44512;53.046;18.604;2022-12-18T08:13:01;103685.48;;;-2.42;66.38
58739;BME280;44512;53.046;18.604;2022-12-18T08:23:30;103688.26;;;-2.46;66.61
58739;BME280;44512;53.046;18.604;2022-12-18T08:33:58;103697.13;;;-2.47;66.73
58739;BME280;44512;53.046;18.604;2022-12-18T08:44:26;103721.25;;;-2.56;66.62
58739;BME280;44512;53.046;18.604;2022-12-18T08:54:55;103731.94;;;-2.59;66.74
58739;BME280;44512;53.046;18.604;2022-12-18T09:05:23;103726.63;;;-2.59;66.88
58739;BME280;44512;53.046;18.604;2022-12-18T09:15:53;103736.61;;;-2.69;66.31
58739;BME280;44512;53.046;18.604;2022-12-18T09:26:22;103737.82;;;-2.81;66.64
58739;BME280;44512;53.046;18.604;2022-12-18T09:41:52;103726.39;;;-2.83;67.16
58739;BME280;44512;53.046;18.604;2022-12-18T09:52:23;103725.35;;;-2.77;67.44
58739;BME280;44512;53.046;18.604;2022-12-18T10:02:45;103711.88;;;-2.70;67.75
58739;BME280;44512;53.046;18.604;2022-12-18T10:13:21;103709.55;;;-2.49;67.86
58739;BME280;44512;53.046;18.604;2022-12-18T10:34:14;103727.25;;;-2.19;66.67
58739;BME280;44512;53.046;18.604;2022-12-18T10:44:39;103726.33;;;-2.18;66.27
58739;BME280;44512;53.046;18.604;2022-12-18T10:55:15;103739.71;;;-2.21;65.81
58739;BME280;44512;53.046;18.604;2022-12-18T11:05:36;103741.13;;;-2.40;65.36
58739;BME280;44512;53.046;18.604;2022-12-18T11:16:04;103746.61;;;-2.46;65.75
58739;BME280;44512;53.046;18.604;2022-12-18T11:26:36;103756.38;;;-2.48;65.73
58739;BME280;44512;53.046;18.604;2022-12-18T11:37:03;103782.48;;;-2.66;65.17
58739;BME280;44512;53.046;18.604;2022-12-18T11:47:40;103775.09;;;-2.87;65.35
58739;BME280;44512;53.046;18.604;2022-12-18T11:58:11;103779.75;;;-2.97;65.55
58739;BME280;44512;53.046;18.604;2022-12-18T12:08:42;103783.31;;;-2.98;65.73
58739;BME280;44512;53.046;18.604;2022-12-18T12:19:05;103778.95;;;-3.00;65.79
58739;BME280;44512;53.046;18.604;2022-12-18T12:39:54;103792.06;;;-2.94;65.56
58739;BME280;44512;53.046;18.604;2022-12-18T12:50:22;103795.48;;;-2.89;65.54
58739;BME280;44512;53.046;18.604;2022-12-18T13:21:55;103838.41;;;-3.12;65.58
58739;BME280;44512;53.046;18.604;2022-12-18T13:32:23;103845.80;;;-3.25;65.36
58739;BME280;44512;53.046;18.604;2022-12-18T13:42:44;103851.86;;;-3.20;65.84
58739;BME280;44512;53.046;18.604;2022-12-18T13:53:21;103853.19;;;-3.02;65.63
58739;BME280;44512;53.046;18.604;2022-12-18T14:03:40;103866.45;;;-3.02;65.43
58739;BME280;44512;53.046;18.604;2022-12-18T14:14:09;103855.81;;;-3.00;65.68
58739;BME280;44512;53.046;18.604;2022-12-18T14:24:37;103857.37;;;-2.92;65.43
58739;BME280;44512;53.046;18.604;2022-12-18T14:35:14;103854.06;;;-3.01;64.81
58739;BME280;44512;53.046;18.604;2022-12-18T14:45:43;103848.91;;;-3.07;65.23
58739;BME280;44512;53.046;18.604;2022-12-18T14:56:26;103846.00;;;-2.97;65.17
58739;BME280;44512;53.046;18.604;2022-12-18T15:06:38;103868.16;;;-2.99;64.83
58739;BME280;44512;53.046;18.604;2022-12-18T15:17:21;103860.98;;;-2.94;64.73
58739;BME280;44512;53.046;18.604;2022-12-18T15:27:35;103875.27;;;-3.01;64.67
58739;BME280;44512;53.046;18.604;2022-12-18T15:37:58;103905.68;;;-3.18;64.76
58739;BME280;44512;53.046;18.604;2022-12-18T15:48:25;103896.05;;;-3.22;65.23
58739;BME280;44512;53.046;18.604;2022-12-18T15:58:54;103885.09;;;-3.06;65.21
58739;BME280;44512;53.046;18.604;2022-12-18T16:09:22;103910.59;;;-2.99;64.89
58739;BME280;44512;53.046;18.604;2022-12-18T16:19:51;103912.17;;;-2.92;64.64
58739;BME280;44512;53.046;18.604;2022-12-18T16:30:22;103905.91;;;-2.90;64.37
58739;BME280;44512;53.046;18.604;2022-12-18T16:40:48;103877.55;;;-2.86;64.11
58739;BME280;44512;53.046;18.604;2022-12-18T16:51:16;103847.59;;;-2.88;63.89
58739;BME280;44512;53.046;18.604;2022-12-18T17:01:44;103846.66;;;-2.87;64.01
58739;BME280;44512;53.046;18.604;2022-12-18T17:12:13;103860.09;;;-2.95;64.05
58739;BME280;44512;53.046;18.604;2022-12-18T17:22:41;103859.38;;;-3.01;64.00
58739;BME280;44512;53.046;18.604;2022-12-18T17:33:10;103844.48;;;-3.07;63.93
58739;BME280;44512;53.046;18.604;2022-12-18T17:43:38;103850.94;;;-3.19;64.13
58739;BME280;44512;53.046;18.604;2022-12-18T17:54:08;103829.90;;;-3.25;63.95
58739;BME280;44512;53.046;18.604;2022-12-18T18:04:35;103852.88;;;-3.27;63.90
58739;BME280;44512;53.046;18.604;2022-12-18T18:15:04;103850.94;;;-3.19;63.67
58739;BME280;44512;53.046;18.604;2022-12-18T18:25:35;103859.80;;;-3.20;63.08
58739;BME280;44512;53.046;18.604;2022-12-18T18:36:02;103860.78;;;-3.24;62.76
58739;BME280;44512;53.046;18.604;2022-12-18T18:46:29;103865.22;;;-3.26;62.67
58739;BME280;44512;53.046;18.604;2022-12-18T18:56:58;103882.94;;;-3.28;62.38
58739;BME280;44512;53.046;18.604;2022-12-18T19:07:26;103888.65;;;-3.48;62.49
58739;BME280;44512;53.046;18.604;2022-12-18T19:17:55;103893.90;;;-3.45;62.63
58739;BME280;44512;53.046;18.604;2022-12-18T19:28:23;103879.93;;;-3.51;62.44
58739;BME280;44512;53.046;18.604;2022-12-18T19:38:54;103894.18;;;-3.58;62.44
58739;BME280;44512;53.046;18.604;2022-12-18T19:49:20;103866.09;;;-3.65;62.50
58739;BME280;44512;53.046;18.604;2022-12-18T19:59:50;103858.05;;;-3.61;62.33
58739;BME280;44512;53.046;18.604;2022-12-18T20:10:18;103840.72;;;-3.76;62.09
58739;BME280;44512;53.046;18.604;2022-12-18T20:20:46;103839.86;;;-3.78;62.23
58739;BME280;44512;53.046;18.604;2022-12-18T20:31:15;103850.57;;;-3.84;62.52
58739;BME280;44512;53.046;18.604;2022-12-18T20:41:43;103863.72;;;-3.79;62.50
58739;BME280;44512;53.046;18.604;2022-12-18T20:52:11;103865.59;;;-3.84;62.63
58739;BME280;44512;53.046;18.604;2022-12-18T21:02:40;103855.73;;;-3.76;62.71
58739;BME280;44512;53.046;18.604;2022-12-18T21:13:08;103855.64;;;-3.72;62.53
58739;BME280;44512;53.046;18.604;2022-12-18T21:23:37;103854.08;;;-3.82;62.46
58739;BME280;44512;53.046;18.604;2022-12-18T21:34:06;103846.07;;;-3.79;62.58
58739;BME280;44512;53.046;18.604;2022-12-18T21:44:34;103849.78;;;-3.87;62.75
58739;BME280;44512;53.046;18.604;2022-12-18T21:55:03;103852.36;;;-3.84;62.87
58739;BME280;44512;53.046;18.604;2022-12-18T22:05:31;103848.89;;;-3.88;63.01
58739;BME280;44512;53.046;18.604;2022-12-18T22:15:59;103853.21;;;-3.82;63.05
58739;BME280;44512;53.046;18.604;2022-12-18T22:26:30;103834.88;;;-3.93;63.00
58739;BME280;44512;53.046;18.604;2022-12-18T22:36:56;103812.83;;;-3.94;63.43
58739;BME280;44512;53.046;18.604;2022-12-18T22:47:25;103804.76;;;-3.86;63.36
58739;BME280;44512;53.046;18.604;2022-12-18T22:57:53;103820.49;;;-3.80;63.09
58739;BME280;44512;53.046;18.604;2022-12-18T23:08:22;103808.23;;;-3.84;63.13
58739;BME280;44512;53.046;18.604;2022-12-18T23:18:54;103781.70;;;-3.81;63.21
58739;BME280;44512;53.046;18.604;2022-12-18T23:29:19;103788.60;;;-3.74;63.01
58739;BME280;44512;53.046;18.604;2022-12-18T23:39:47;103779.75;;;-3.73;62.92
58739;BME280;44512;53.046;18.604;2022-12-18T23:50:16;103761.35;;;-3.77;63.17
